createdAt,value
2018-06-09T00:00:26.964Z,100814.62
2018-06-09T00:02:55.316Z,100816.28
2018-06-09T00:05:23.665Z,100817.93
2018-06-09T00:07:51.995Z,100816.20
2018-06-09T00:10:20.350Z,100817.72
2018-06-09T00:12:48.730Z,100813.61
2018-06-09T00:15:17.542Z,100814.35
2018-06-09T00:17:45.885Z,100811.55
2018-06-09T00:20:14.214Z,100815.58
2018-06-09T00:22:42.551Z,100814.14
2018-06-09T00:25:10.899Z,100820.59
2018-06-09T00:27:39.247Z,100822.97
2018-06-09T00:30:07.599Z,100826.22
2018-06-09T00:32:35.950Z,100832.47
2018-06-09T00:35:04.316Z,100829.89
2018-06-09T00:37:32.636Z,100830.52
2018-06-09T00:40:00.971Z,100836.50
2018-06-09T00:42:29.315Z,100835.41
2018-06-09T00:44:57.653Z,100837.80
2018-06-09T00:47:26.027Z,100842.56
2018-06-09T00:49:54.359Z,100842.83
2018-06-09T00:52:22.685Z,100843.11
2018-06-09T00:54:51.028Z,100844.75
2018-06-09T00:57:19.371Z,100842.64
2018-06-09T00:59:47.714Z,100845.14
2018-06-09T01:02:16.053Z,100846.67
2018-06-09T01:04:44.450Z,100849.67
2018-06-09T01:07:12.790Z,100843.85
2018-06-09T01:09:41.128Z,100855.13
2018-06-09T01:12:09.456Z,100848.65
2018-06-09T01:14:37.791Z,100851.50
2018-06-09T01:17:06.144Z,100856.27
2018-06-09T01:19:34.487Z,100856.89
2018-06-09T01:22:02.828Z,100849.34
2018-06-09T01:24:31.141Z,100853.59
2018-06-09T01:26:59.547Z,100853.72
2018-06-09T01:29:27.883Z,100852.06
2018-06-09T01:31:56.236Z,100855.42
2018-06-09T01:34:24.569Z,100862.09
2018-06-09T01:36:52.899Z,100859.52
2018-06-09T01:39:21.204Z,100859.28
2018-06-09T01:41:49.530Z,100862.94
2018-06-09T01:44:17.855Z,100859.61
2018-06-09T01:46:46.176Z,100859.11
2018-06-09T01:49:14.519Z,100855.84
2018-06-09T01:51:42.880Z,100859.67
2018-06-09T01:54:11.284Z,100860.95
2018-06-09T01:56:39.616Z,100855.60
2018-06-09T01:59:07.930Z,100857.86
2018-06-09T02:01:36.257Z,100860.20
2018-06-09T02:04:04.601Z,100856.61
2018-06-09T02:06:32.927Z,100855.39
2018-06-09T02:09:01.247Z,100852.34
2018-06-09T02:11:29.558Z,100847.37
2018-06-09T02:13:57.897Z,100845.83
2018-06-09T02:16:26.232Z,100845.97
2018-06-09T02:18:54.548Z,100854.92
2018-06-09T02:21:22.888Z,100851.50
2018-06-09T02:23:51.208Z,100850.13
2018-06-09T02:26:19.637Z,100847.14
2018-06-09T02:28:47.968Z,100838.74
2018-06-09T02:31:16.305Z,100834.26
2018-06-09T02:33:44.614Z,100839.41
2018-06-09T02:36:12.949Z,100838.98
2018-06-09T02:38:41.252Z,100841.95
2018-06-09T02:41:09.583Z,100838.12
2018-06-09T02:43:37.899Z,100833.27
2018-06-09T02:46:06.224Z,100831.89
2018-06-09T02:48:34.554Z,100833.17
2018-06-09T02:51:02.905Z,100833.58
2018-06-09T02:53:31.233Z,100828.01
2018-06-09T02:55:59.588Z,100825.80
2018-06-09T02:58:27.965Z,100828.12
2018-06-09T03:00:56.289Z,100827.11
2018-06-09T03:03:24.656Z,100829.08
2018-06-09T03:05:52.998Z,100826.91
2018-06-09T03:08:21.302Z,100820.39
2018-06-09T03:10:49.631Z,100820.89
2018-06-09T03:13:17.955Z,100830.04
2018-06-09T03:15:46.287Z,100825.33
2018-06-09T03:18:14.603Z,100829.66
2018-06-09T03:20:43.035Z,100823.10
2018-06-09T03:23:11.404Z,100818.27
2018-06-09T03:25:39.715Z,100820.73
2018-06-09T03:28:08.037Z,100808.80
2018-06-09T03:30:36.363Z,100819.52
2018-06-09T03:33:04.728Z,100821.85
2018-06-09T03:35:33.071Z,100818.36
2018-06-09T03:38:01.428Z,100810.17
2018-06-09T03:40:29.771Z,100818.75
2018-06-09T03:42:58.075Z,100818.50
2018-06-09T03:45:26.396Z,100812.28
2018-06-09T03:47:54.726Z,100815.22
2018-06-09T03:50:23.056Z,100816.47
2018-06-09T03:52:51.387Z,100821.09
2018-06-09T03:55:19.736Z,100809.55
2018-06-09T03:57:48.080Z,100818.75
2018-06-09T04:00:16.422Z,100820.68
2018-06-09T04:02:44.741Z,100822.53
2018-06-09T04:05:13.077Z,100832.20
2018-06-09T04:07:41.536Z,100824.40
2018-06-09T04:10:09.867Z,100822.63
2018-06-09T04:12:38.216Z,100820.25
2018-06-09T04:15:06.723Z,100814.19
2018-06-09T04:17:35.076Z,100820.48
2018-06-09T04:20:03.430Z,100822.63
2018-06-09T04:22:31.776Z,100825.30
2018-06-09T04:25:00.111Z,100823.58
2018-06-09T04:27:28.431Z,100832.12
2018-06-09T04:29:57.555Z,100837.32
2018-06-09T04:32:25.905Z,100831.30
2018-06-09T04:34:54.244Z,100825.58
2018-06-09T04:37:22.595Z,100826.44
2018-06-09T04:39:50.971Z,100825.94
2018-06-09T04:42:19.349Z,100818.42
2018-06-09T04:44:47.761Z,100819.61
2018-06-09T04:47:16.077Z,100816.31
2018-06-09T04:49:44.441Z,100811.28
2018-06-09T04:52:12.838Z,100808.37
2018-06-09T04:54:41.149Z,100808.09
2018-06-09T04:57:09.496Z,100816.81
2018-06-09T04:59:37.833Z,100820.57
2018-06-09T05:02:06.210Z,100820.45
2018-06-09T05:04:34.527Z,100827.06
2018-06-09T05:07:02.966Z,100819.17
2018-06-09T05:09:31.323Z,100820.72
2018-06-09T05:11:59.664Z,100825.69
2018-06-09T05:14:28.020Z,100823.48
2018-06-09T05:16:56.355Z,100814.85
2018-06-09T05:19:24.701Z,100813.47
2018-06-09T05:21:53.047Z,100816.94
2018-06-09T05:24:21.390Z,100821.55
2018-06-09T05:26:49.733Z,100813.89
2018-06-09T05:29:18.072Z,100818.64
2018-06-09T05:31:46.423Z,100822.97
2018-06-09T05:34:14.767Z,100827.27
2018-06-09T05:36:43.108Z,100828.45
2018-06-09T05:39:11.485Z,100832.31
2018-06-09T05:41:39.838Z,100833.87
2018-06-09T05:44:08.217Z,100829.34
2018-06-09T05:46:36.599Z,100831.13
2018-06-09T05:49:04.944Z,100833.53
2018-06-09T05:51:33.282Z,100828.86
2018-06-09T05:54:01.630Z,100838.55
2018-06-09T05:56:29.971Z,100842.32
2018-06-09T05:58:58.393Z,100843.20
2018-06-09T06:01:26.770Z,100840.64
2018-06-09T06:03:55.138Z,100852.75
2018-06-09T06:06:23.496Z,100850.94
2018-06-09T06:08:51.832Z,100857.44
2018-06-09T06:11:20.181Z,100861.60
2018-06-09T06:13:48.515Z,100854.53
2018-06-09T06:16:16.870Z,100854.22
2018-06-09T06:18:45.265Z,100862.62
2018-06-09T06:21:13.559Z,100857.48
2018-06-09T06:23:41.902Z,100862.70
2018-06-09T06:26:10.234Z,100864.03
2018-06-09T06:28:38.587Z,100853.95
2018-06-09T06:31:06.936Z,100854.60
2018-06-09T06:33:35.287Z,100856.29
2018-06-09T06:36:03.673Z,100855.45
2018-06-09T06:38:32.077Z,100858.82
2018-06-09T06:41:00.429Z,100858.53
2018-06-09T06:43:28.760Z,100864.02
2018-06-09T06:45:57.080Z,100862.97
2018-06-09T06:48:25.424Z,100869.16
2018-06-09T06:50:53.766Z,100866.42
2018-06-09T06:53:22.113Z,100865.72
2018-06-09T06:55:50.449Z,100868.25
2018-06-09T06:58:18.773Z,100874.78
2018-06-09T07:00:47.104Z,100872.78
2018-06-09T07:03:15.456Z,100869.88
2018-06-09T07:05:43.804Z,100866.07
2018-06-09T07:08:12.148Z,100868.88
2018-06-09T07:10:40.493Z,100858.61
2018-06-09T07:13:08.858Z,100865.31
2018-06-09T07:15:37.223Z,100868.67
2018-06-09T07:18:05.601Z,100856.96
2018-06-09T07:20:33.954Z,100856.81
2018-06-09T07:23:02.295Z,100851.48
2018-06-09T07:25:30.631Z,100853.50
2018-06-09T07:27:58.978Z,100853.19
2018-06-09T07:30:27.321Z,100854.89
2018-06-09T07:32:55.638Z,100846.55
2018-06-09T07:35:23.978Z,100843.91
2018-06-09T07:37:52.323Z,100846.03
2018-06-09T07:40:20.674Z,100844.58
2018-06-09T07:42:49.013Z,100844.56
2018-06-09T07:45:17.371Z,100847.31
2018-06-09T07:47:45.693Z,100849.78
2018-06-09T07:50:14.041Z,100839.89
2018-06-09T07:52:42.418Z,100849.91
2018-06-09T07:55:10.779Z,100851.38
2018-06-09T07:57:39.104Z,100850.94
2018-06-09T08:00:07.428Z,100849.16
2018-06-09T08:02:35.819Z,100851.15
2018-06-09T08:05:04.185Z,100847.66
2018-06-09T08:07:32.498Z,100854.59
2018-06-09T08:10:00.835Z,100846.77
2018-06-09T08:12:29.150Z,100836.07
2018-06-09T08:14:58.079Z,100841.34
2018-06-09T08:17:26.423Z,100840.56
2018-06-09T08:19:54.816Z,100838.03
2018-06-09T08:22:23.171Z,100827.37
2018-06-09T08:24:51.507Z,100826.77
2018-06-09T08:27:19.868Z,100826.00
2018-06-09T08:29:48.214Z,100831.77
2018-06-09T08:32:16.600Z,100833.47
2018-06-09T08:34:44.978Z,100828.73
2018-06-09T08:37:13.320Z,100823.11
2018-06-09T08:39:41.659Z,100826.99
2018-06-09T08:42:10.027Z,100821.46
2018-06-09T08:44:38.866Z,100830.56
2018-06-09T08:47:07.237Z,100822.03
2018-06-09T08:49:35.587Z,100819.70
2018-06-09T08:52:04.002Z,100815.30
2018-06-09T08:54:32.395Z,100822.90
2018-06-09T08:57:00.760Z,100822.10
2018-06-09T08:59:29.101Z,100821.36
2018-06-09T09:01:57.450Z,100829.23
2018-06-09T09:04:25.797Z,100820.58
2018-06-09T09:06:54.133Z,100832.76
2018-06-09T09:09:22.490Z,100826.98
2018-06-09T09:11:50.803Z,100822.69
2018-06-09T09:14:19.197Z,100818.50
2018-06-09T09:16:47.519Z,100830.44
2018-06-09T09:19:15.895Z,100825.91
2018-06-09T09:21:44.253Z,100819.30
2018-06-09T09:24:12.592Z,100821.04
2018-06-09T09:26:40.936Z,100823.06
2018-06-09T09:29:09.271Z,100822.88
2018-06-09T09:31:37.658Z,100831.22
2018-06-09T09:34:06.177Z,100824.59
2018-06-09T09:36:34.549Z,100820.41
2018-06-09T09:39:02.932Z,100824.12
2018-06-09T09:41:31.479Z,100824.18
2018-06-09T09:43:59.951Z,100819.91
2018-06-09T09:46:28.350Z,100822.52
2018-06-09T09:48:56.802Z,100813.92
2018-06-09T09:51:25.167Z,100812.89
2018-06-09T09:53:53.522Z,100826.87
2018-06-09T09:56:21.893Z,100823.20
2018-06-09T09:58:50.241Z,100826.82
2018-06-09T10:01:18.576Z,100815.84
2018-06-09T10:03:46.915Z,100807.41
2018-06-09T10:06:15.265Z,100810.47
2018-06-09T10:08:43.655Z,100813.31
2018-06-09T10:11:11.996Z,100813.58
2018-06-09T10:13:40.307Z,100806.81
2018-06-09T10:16:08.705Z,100799.19
2018-06-09T10:18:37.066Z,100803.34
2018-06-09T10:21:05.481Z,100799.90
2018-06-09T10:23:33.826Z,100802.16
2018-06-09T10:26:02.160Z,100795.39
2018-06-09T10:28:30.482Z,100789.69
2018-06-09T10:30:58.975Z,100792.16
2018-06-09T10:33:27.306Z,100794.87
2018-06-09T10:35:55.663Z,100778.44
2018-06-09T10:38:23.988Z,100781.36
2018-06-09T10:40:52.307Z,100777.36
2018-06-09T10:43:20.710Z,100777.08
2018-06-09T10:45:49.072Z,100772.65
2018-06-09T10:48:17.474Z,100771.52
2018-06-09T10:50:45.847Z,100767.92
2018-06-09T10:53:14.304Z,100784.19
2018-06-09T10:55:42.743Z,100776.71
2018-06-09T10:58:11.139Z,100782.66
2018-06-09T11:00:52.870Z,100776.19
2018-06-09T11:03:21.284Z,100779.39
2018-06-09T11:05:49.641Z,100796.41
2018-06-09T11:08:18.013Z,100787.12
2018-06-09T11:10:46.511Z,100788.09
2018-06-09T11:13:14.865Z,100793.89
2018-06-09T11:15:43.249Z,100785.14
2018-06-09T11:18:11.628Z,100790.33
2018-06-09T11:20:40.053Z,100786.42
2018-06-09T11:23:08.412Z,100782.87
2018-06-09T11:25:36.765Z,100777.56
2018-06-09T11:28:05.165Z,100776.44
2018-06-09T11:30:33.528Z,100774.30
2018-06-09T11:33:01.911Z,100772.04
2018-06-09T11:35:31.178Z,100775.92
2018-06-09T11:37:59.540Z,100767.99
2018-06-09T11:40:28.161Z,100765.05
2018-06-09T11:42:56.495Z,100756.80
2018-06-09T11:45:24.828Z,100758.22
2018-06-09T11:47:53.177Z,100761.38
2018-06-09T11:50:21.524Z,100755.84
2018-06-09T11:52:49.860Z,100753.18
2018-06-09T11:55:18.241Z,100751.53
2018-06-09T11:57:46.587Z,100738.30
2018-06-09T12:00:14.936Z,100738.22
2018-06-09T12:02:43.304Z,100738.53
2018-06-09T12:05:11.651Z,100732.41
2018-06-09T12:07:39.999Z,100734.86
2018-06-09T12:10:08.336Z,100721.97
2018-06-09T12:12:36.728Z,100729.17
2018-06-09T12:15:05.678Z,100733.89
2018-06-09T12:17:34.035Z,100734.68
2018-06-09T12:20:02.407Z,100734.81
2018-06-09T12:22:30.754Z,100747.12
2018-06-09T12:24:59.167Z,100740.20
2018-06-09T12:27:27.604Z,100727.47
2018-06-09T12:29:55.956Z,100726.09
2018-06-09T12:32:24.356Z,100731.28
2018-06-09T12:34:52.708Z,100727.80
2018-06-09T12:37:21.045Z,100726.48
2018-06-09T12:39:49.425Z,100726.00
2018-06-09T12:42:17.778Z,100724.56
2018-06-09T12:44:46.112Z,100715.86
2018-06-09T12:47:14.532Z,100711.64
2018-06-09T12:49:42.921Z,100714.55
2018-06-09T12:52:11.264Z,100717.34
2018-06-09T12:54:39.638Z,100709.70
2018-06-09T12:57:07.995Z,100709.01
2018-06-09T12:59:36.332Z,100718.75
2018-06-09T13:02:04.677Z,100716.44
2018-06-09T13:04:33.021Z,100715.79
2018-06-09T13:07:01.408Z,100702.32
2018-06-09T13:09:29.783Z,100696.26
2018-06-09T13:11:58.148Z,100696.02
2018-06-09T13:14:26.481Z,100693.95
2018-06-09T13:16:54.854Z,100693.28
2018-06-09T13:19:23.231Z,100689.20
2018-06-09T13:21:51.607Z,100681.88
2018-06-09T13:24:19.998Z,100679.88
2018-06-09T13:26:48.374Z,100680.09
2018-06-09T13:29:16.767Z,100669.62
2018-06-09T13:31:45.151Z,100671.57
2018-06-09T13:34:13.537Z,100665.88
2018-06-09T13:36:41.957Z,100677.91
2018-06-09T13:39:10.380Z,100669.20
2018-06-09T13:41:38.742Z,100675.41
2018-06-09T13:44:07.063Z,100674.02
2018-06-09T13:46:35.429Z,100668.45
2018-06-09T13:49:03.804Z,100656.57
2018-06-09T13:51:32.141Z,100656.67
2018-06-09T13:54:00.505Z,100662.52
2018-06-09T13:56:28.848Z,100655.50
2018-06-09T13:58:57.679Z,100654.48
2018-06-09T14:01:26.135Z,100666.41
2018-06-09T14:03:54.463Z,100658.79
2018-06-09T14:06:22.780Z,100666.67
2018-06-09T14:08:51.114Z,100655.91
2018-06-09T14:11:19.495Z,100647.14
2018-06-09T14:13:47.838Z,100648.70
2018-06-09T14:16:16.184Z,100646.98
2018-06-09T14:18:44.536Z,100644.99
2018-06-09T14:21:12.884Z,100647.91
2018-06-09T14:23:41.224Z,100638.70
2018-06-09T14:26:09.568Z,100629.67
2018-06-09T14:28:37.917Z,100641.16
2018-06-09T14:31:06.256Z,100637.94
2018-06-09T14:33:34.606Z,100636.60
2018-06-09T14:36:02.948Z,100635.03
2018-06-09T14:38:31.290Z,100634.86
2018-06-09T14:40:59.658Z,100640.14
2018-06-09T14:43:28.037Z,100629.77
2018-06-09T14:45:56.361Z,100623.08
2018-06-09T14:48:24.746Z,100623.22
2018-06-09T14:50:53.128Z,100611.73
2018-06-09T14:53:21.464Z,100615.10
2018-06-09T14:55:49.858Z,100608.62
2018-06-09T14:58:18.229Z,100611.85
2018-06-09T15:00:46.571Z,100608.02
2018-06-09T15:03:14.916Z,100609.07
2018-06-09T15:05:43.259Z,100613.05
2018-06-09T15:08:11.660Z,100607.45
2018-06-09T15:10:40.059Z,100615.89
2018-06-09T15:13:08.408Z,100608.89
2018-06-09T15:15:36.779Z,100609.84
2018-06-09T15:18:05.144Z,100606.61
2018-06-09T15:20:33.499Z,100614.66
2018-06-09T15:23:01.874Z,100615.12
2018-06-09T15:25:30.234Z,100613.92
2018-06-09T15:27:58.611Z,100610.51
2018-06-09T15:30:26.952Z,100611.23
2018-06-09T15:32:55.309Z,100613.20
2018-06-09T15:35:23.669Z,100613.20
2018-06-09T15:37:51.983Z,100613.36
2018-06-09T15:40:20.327Z,100617.08
2018-06-09T15:42:48.708Z,100615.00
2018-06-09T15:45:17.126Z,100609.99
2018-06-09T15:47:45.488Z,100615.27
2018-06-09T15:50:13.843Z,100605.38
2018-06-09T15:52:42.166Z,100611.70
2018-06-09T15:55:10.545Z,100608.61
2018-06-09T15:57:38.890Z,100603.38
2018-06-09T16:00:07.229Z,100609.28
2018-06-09T16:02:35.664Z,100609.46
2018-06-09T16:05:04.022Z,100614.91
2018-06-09T16:07:32.361Z,100611.73
2018-06-09T16:10:00.723Z,100612.98
2018-06-09T16:12:29.184Z,100604.84
2018-06-09T16:14:57.533Z,100617.20
2018-06-09T16:17:25.920Z,100618.84
2018-06-09T16:19:54.258Z,100619.91
2018-06-09T16:22:22.664Z,100620.52
2018-06-09T16:24:51.015Z,100616.64
2018-06-09T16:27:19.383Z,100618.98
2018-06-09T16:29:47.707Z,100618.73
2018-06-09T16:32:16.051Z,100618.42
2018-06-09T16:34:44.412Z,100626.73
2018-06-09T16:37:12.744Z,100622.64
2018-06-09T16:39:41.103Z,100620.97
2018-06-09T16:42:09.424Z,100626.16
2018-06-09T16:44:37.800Z,100629.67
2018-06-09T16:47:06.136Z,100622.08
2018-06-09T16:49:34.496Z,100626.83
2018-06-09T16:52:02.901Z,100628.42
2018-06-09T16:54:31.284Z,100633.95
2018-06-09T16:56:59.602Z,100634.41
2018-06-09T16:59:27.978Z,100636.79
2018-06-09T17:01:56.330Z,100634.09
2018-06-09T17:04:24.655Z,100643.63
2018-06-09T17:06:52.985Z,100643.16
2018-06-09T17:09:21.359Z,100639.67
2018-06-09T17:11:49.705Z,100642.29
2018-06-09T17:14:18.050Z,100647.17
2018-06-09T17:16:46.384Z,100636.96
2018-06-09T17:19:14.739Z,100644.73
2018-06-09T17:21:43.096Z,100649.09
2018-06-09T17:24:11.431Z,100640.26
2018-06-09T17:26:39.779Z,100643.03
2018-06-09T17:29:08.126Z,100643.20
2018-06-09T17:31:36.494Z,100647.62
2018-06-09T17:34:04.872Z,100642.09
2018-06-09T17:36:33.289Z,100646.62
2018-06-09T17:39:01.647Z,100643.84
2018-06-09T17:41:30.489Z,100643.53
2018-06-09T17:43:58.985Z,100647.88
2018-06-09T17:46:27.638Z,100642.20
2018-06-09T17:48:56.046Z,100641.96
2018-06-09T17:51:24.653Z,100645.81
2018-06-09T17:53:53.619Z,100645.81
2018-06-09T17:56:22.059Z,100644.84
2018-06-09T17:58:50.452Z,100643.45
2018-06-09T18:01:18.844Z,100639.69
2018-06-09T18:03:47.270Z,100637.56
2018-06-09T18:06:16.671Z,100638.30
2018-06-09T18:08:45.050Z,100637.63
2018-06-09T18:11:14.283Z,100644.27
2018-06-09T18:13:42.914Z,100665.16
2018-06-09T18:16:11.323Z,100656.11
2018-06-09T18:18:39.718Z,100648.16
2018-06-09T18:21:08.139Z,100650.84
2018-06-09T18:23:36.569Z,100646.62
2018-06-09T18:26:05.018Z,100658.85
2018-06-09T18:28:33.441Z,100664.48
2018-06-09T18:31:01.808Z,100675.58
2018-06-09T18:33:30.181Z,100665.72
2018-06-09T18:35:58.943Z,100675.55
2018-06-09T18:38:28.374Z,100680.89
2018-06-09T18:40:57.405Z,100681.39
2018-06-09T18:43:26.353Z,100678.38
2018-06-09T18:45:54.736Z,100682.52
2018-06-09T18:48:23.122Z,100684.62
2018-06-09T18:50:51.626Z,100685.33
2018-06-09T18:53:20.422Z,100684.44
2018-06-09T18:55:48.787Z,100682.73
2018-06-09T18:58:18.033Z,100682.94
2018-06-09T19:00:46.590Z,100689.66
2018-06-09T19:03:15.016Z,100691.56
2018-06-09T19:06:00.178Z,100696.84
2018-06-09T19:08:28.552Z,100690.38
2018-06-09T19:10:57.067Z,100697.97
2018-06-09T19:13:40.312Z,100705.20
2018-06-09T19:16:08.925Z,100714.17
2018-06-09T19:18:39.478Z,100714.70
2018-06-09T19:21:07.924Z,100723.88
2018-06-09T19:23:36.306Z,100730.06
2018-06-09T19:26:07.288Z,100725.25
2018-06-09T19:28:35.750Z,100732.13
2018-06-09T19:31:04.212Z,100733.16
2018-06-09T19:33:49.748Z,100737.12
2018-06-09T19:36:18.204Z,100735.03
2018-06-09T19:38:47.482Z,100740.03
2018-06-09T19:41:16.582Z,100743.68
2018-06-09T19:43:45.525Z,100746.06
2018-06-09T19:46:14.312Z,100741.78
2018-06-09T19:48:42.817Z,100741.94
2018-06-09T19:51:11.235Z,100744.17
2018-06-09T19:53:39.629Z,100738.17
2018-06-09T19:56:08.471Z,100742.30
2018-06-09T19:58:36.955Z,100749.67
2018-06-09T20:01:06.784Z,100743.13
2018-06-09T20:03:35.213Z,100742.94
2018-06-09T20:06:03.690Z,100748.25
2018-06-09T20:08:32.089Z,100747.92
2018-06-09T20:11:00.660Z,100746.21
2018-06-09T20:13:29.120Z,100740.51
2018-06-09T20:15:57.532Z,100753.41
2018-06-09T20:18:25.947Z,100750.31
2018-06-09T20:20:54.624Z,100751.36
2018-06-09T20:23:23.702Z,100754.95
2018-06-09T20:25:53.186Z,100750.62
2018-06-09T20:28:21.712Z,100749.42
2018-06-09T20:30:50.080Z,100752.00
2018-06-09T20:33:18.496Z,100753.20
2018-06-09T20:35:46.876Z,100749.41
2018-06-09T20:38:15.455Z,100748.19
2018-06-09T20:40:43.910Z,100752.00
2018-06-09T20:43:12.414Z,100750.41
2018-06-09T20:45:40.823Z,100743.52
2018-06-09T20:48:09.200Z,100749.67
2018-06-09T20:50:37.555Z,100749.13
2018-06-09T20:53:05.916Z,100751.56
2018-06-09T20:55:34.931Z,100747.77
2018-06-09T20:58:04.178Z,100746.04
2018-06-09T21:00:32.624Z,100750.80
2018-06-09T21:03:01.194Z,100749.60
2018-06-09T21:05:29.543Z,100743.58
2018-06-09T21:07:57.882Z,100739.45
2018-06-09T21:10:26.272Z,100749.83
2018-06-09T21:12:55.052Z,100751.37
2018-06-09T21:15:24.016Z,100746.06
2018-06-09T21:17:52.416Z,100746.06
2018-06-09T21:20:20.817Z,100749.80
2018-06-09T21:22:49.265Z,100747.85
2018-06-09T21:25:17.698Z,100752.98
2018-06-09T21:27:51.409Z,100758.70
2018-06-09T21:30:25.207Z,100749.80
2018-06-09T21:32:58.889Z,100754.64
2018-06-09T21:35:43.712Z,100761.56
2018-06-09T21:38:18.076Z,100758.90
2018-06-09T21:40:49.520Z,100753.87
2018-06-09T21:43:23.182Z,100756.61
2018-06-09T21:45:52.323Z,100751.32
2018-06-09T21:48:21.104Z,100750.83
2018-06-09T21:50:50.032Z,100745.16
2018-06-09T21:53:18.456Z,100744.68
2018-06-09T21:55:47.023Z,100747.38
2018-06-09T21:58:15.438Z,100747.41
2018-06-09T22:00:43.791Z,100735.72
2018-06-09T22:03:12.192Z,100736.39
2018-06-09T22:05:40.589Z,100736.19
2018-06-09T22:08:08.998Z,100737.17
2018-06-09T22:10:37.412Z,100741.80
2018-06-09T22:13:05.939Z,100736.48
2018-06-09T22:15:34.364Z,100748.13
2018-06-09T22:18:02.792Z,100747.58
2018-06-09T22:20:31.491Z,100745.00
2018-06-09T22:23:00.135Z,100744.01
2018-06-09T22:25:33.821Z,100748.64
2018-06-09T22:28:02.273Z,100747.03
2018-06-09T22:30:30.687Z,100747.17
2018-06-09T22:32:59.076Z,100747.55
2018-06-09T22:35:27.472Z,100740.77
2018-06-09T22:37:55.921Z,100749.00
2018-06-09T22:40:24.298Z,100754.77
2018-06-09T22:42:52.652Z,100752.98
2018-06-09T22:45:21.057Z,100755.82
2018-06-09T22:47:49.441Z,100757.55
2018-06-09T22:50:17.837Z,100752.00
2018-06-09T22:52:46.269Z,100748.86
2018-06-09T22:55:14.713Z,100747.25
2018-06-09T22:57:43.167Z,100746.77
2018-06-09T23:00:17.071Z,100753.52
2018-06-09T23:02:45.532Z,100739.58
2018-06-09T23:05:13.960Z,100746.14
2018-06-09T23:07:42.323Z,100740.56
2018-06-09T23:10:10.759Z,100737.70
2018-06-09T23:12:39.138Z,100738.39
2018-06-09T23:15:07.553Z,100734.06
2018-06-09T23:17:35.903Z,100741.00
2018-06-09T23:20:04.315Z,100740.41
2018-06-09T23:22:32.711Z,100737.70
2018-06-09T23:25:01.076Z,100734.32
2018-06-09T23:27:29.886Z,100735.81
2018-06-09T23:29:58.472Z,100734.19
2018-06-09T23:32:27.038Z,100730.55
2018-06-09T23:34:55.554Z,100731.27
2018-06-09T23:37:24.174Z,100718.89
2018-06-09T23:39:52.675Z,100721.42
2018-06-09T23:42:21.091Z,100720.91
2018-06-09T23:44:49.579Z,100714.69
2018-06-09T23:47:18.103Z,100721.63
2018-06-09T23:49:46.720Z,100717.52
2018-06-09T23:52:16.265Z,100705.66
2018-06-09T23:54:44.838Z,100704.63
2018-06-09T23:57:13.695Z,100700.82
2018-06-09T23:59:42.273Z,100694.14
